createdAt,value
2023-04-28T00:00:55.324Z,16.02
2023-04-28T00:03:23.476Z,16.09
2023-04-28T00:05:51.700Z,16.12
2023-04-28T00:08:21.717Z,16.12
2023-04-28T00:10:51.000Z,16.12
2023-04-28T00:13:18.888Z,15.96
2023-04-28T00:15:46.827Z,15.89
2023-04-28T00:18:14.763Z,15.92
2023-04-28T00:20:42.899Z,15.97
2023-04-28T00:23:10.844Z,16.01
2023-04-28T00:25:38.726Z,15.98
2023-04-28T00:28:08.041Z,15.98
2023-04-28T00:30:35.984Z,16.00
2023-04-28T00:33:03.966Z,16.01
2023-04-28T00:35:32.443Z,16.01
2023-04-28T00:38:00.348Z,15.99
2023-04-28T00:40:34.300Z,16.03
2023-04-28T00:43:02.615Z,16.03
2023-04-28T00:45:31.966Z,15.93
2023-04-28T00:48:00.515Z,15.88
2023-04-28T00:50:28.474Z,15.81
2023-04-28T00:52:56.529Z,15.82
2023-04-28T00:55:27.512Z,15.85
2023-04-28T00:57:58.496Z,15.87
2023-04-28T01:00:26.527Z,15.90
2023-04-28T01:02:57.055Z,15.93
2023-04-28T01:05:26.969Z,15.96
2023-04-28T01:07:55.497Z,15.96
2023-04-28T01:10:23.740Z,15.96
2023-04-28T01:12:51.686Z,15.94
2023-04-28T01:15:21.758Z,15.92
2023-04-28T01:17:52.737Z,15.89
2023-04-28T01:20:22.390Z,15.84
2023-04-28T01:22:50.921Z,15.83
2023-04-28T01:25:20.974Z,15.85
2023-04-28T01:27:49.273Z,15.88
2023-04-28T01:30:17.418Z,15.90
2023-04-28T01:32:45.410Z,15.92
2023-04-28T01:35:13.352Z,15.94
2023-04-28T01:37:41.324Z,15.94
2023-04-28T01:40:10.314Z,15.92
2023-04-28T01:42:39.660Z,15.93
2023-04-28T01:45:08.506Z,15.94
2023-04-28T01:47:37.825Z,15.94
2023-04-28T01:50:06.543Z,15.92
2023-04-28T01:52:34.485Z,15.87
2023-04-28T01:55:02.665Z,15.85
2023-04-28T01:57:30.612Z,15.91
2023-04-28T02:00:00.713Z,15.88
2023-04-28T02:02:29.408Z,15.88
2023-04-28T02:04:59.103Z,15.92
2023-04-28T02:07:27.105Z,15.95
2023-04-28T02:09:55.059Z,15.99
2023-04-28T02:12:23.667Z,15.96
2023-04-28T02:14:52.279Z,15.95
2023-04-28T02:17:22.598Z,15.92
2023-04-28T02:19:56.324Z,15.89
2023-04-28T02:22:24.452Z,15.88
2023-04-28T02:24:52.481Z,15.88
2023-04-28T02:27:20.847Z,15.81
2023-04-28T02:29:49.617Z,15.81
2023-04-28T02:32:18.110Z,15.77
2023-04-28T02:34:47.357Z,15.76
2023-04-28T02:37:15.289Z,15.67
2023-04-28T02:39:43.201Z,15.57
2023-04-28T02:42:11.183Z,15.59
2023-04-28T02:44:39.086Z,15.61
2023-04-28T02:47:07.233Z,15.66
2023-04-28T02:49:35.721Z,15.70
2023-04-28T02:52:05.282Z,15.69
2023-04-28T02:54:35.322Z,15.64
2023-04-28T02:57:04.559Z,15.55
2023-04-28T02:59:32.676Z,15.55
2023-04-28T03:02:00.655Z,15.52
2023-04-28T03:04:28.699Z,15.31
2023-04-28T03:06:56.773Z,15.23
2023-04-28T03:09:26.111Z,15.21
2023-04-28T03:11:54.063Z,15.19
2023-04-28T03:14:21.997Z,15.28
2023-04-28T03:16:50.178Z,15.45
2023-04-28T03:19:18.137Z,15.53
2023-04-28T03:21:47.811Z,15.56
2023-04-28T03:24:15.974Z,15.53
2023-04-28T03:26:45.758Z,15.51
2023-04-28T03:29:13.747Z,15.55
2023-04-28T03:31:42.069Z,15.54
2023-04-28T03:34:09.984Z,15.49
2023-04-28T03:36:38.340Z,15.56
2023-04-28T03:39:14.329Z,15.61
2023-04-28T03:41:43.411Z,15.64
2023-04-28T03:44:30.910Z,15.59
2023-04-28T03:46:59.910Z,15.58
2023-04-28T03:49:27.855Z,15.57
2023-04-28T03:51:55.776Z,15.54
2023-04-28T03:54:23.701Z,15.55
2023-04-28T03:56:51.820Z,15.55
2023-04-28T03:59:19.738Z,15.57
2023-04-28T04:01:49.068Z,15.64
2023-04-28T04:04:17.654Z,15.70
2023-04-28T04:06:46.784Z,15.73
2023-04-28T04:09:15.388Z,15.75
2023-04-28T04:11:43.317Z,15.81
2023-04-28T04:14:11.468Z,15.84
2023-04-28T04:16:39.527Z,15.87
2023-04-28T04:19:08.942Z,15.90
2023-04-28T04:21:42.199Z,15.84
2023-04-28T04:24:10.261Z,15.82
2023-04-28T04:26:38.864Z,15.76
2023-04-28T04:29:23.751Z,15.70
2023-04-28T04:31:52.574Z,15.69
2023-04-28T04:34:21.885Z,15.61
2023-04-28T04:36:50.579Z,15.61
2023-04-28T04:39:19.133Z,15.59
2023-04-28T04:41:48.759Z,15.59
2023-04-28T04:44:38.938Z,15.59
2023-04-28T04:47:11.751Z,15.56
2023-04-28T04:49:41.229Z,15.54
2023-04-28T04:52:09.293Z,15.50
2023-04-28T04:54:37.212Z,15.48
2023-04-28T04:57:06.798Z,15.56
2023-04-28T05:00:13.821Z,15.59
2023-04-28T05:02:43.254Z,15.58
2023-04-28T05:07:50.090Z,15.59
2023-04-28T05:10:18.176Z,15.55
2023-04-28T05:12:48.751Z,15.55
2023-04-28T05:15:19.058Z,15.59
2023-04-28T05:18:10.954Z,15.62
2023-04-28T05:20:40.476Z,15.45
2023-04-28T05:23:08.437Z,15.53
2023-04-28T05:25:36.533Z,15.60
2023-04-28T05:28:07.553Z,15.60
2023-04-28T05:30:35.849Z,15.63
2023-04-28T05:33:04.215Z,15.68
2023-04-28T05:35:32.671Z,15.69
2023-04-28T05:38:02.073Z,15.70
2023-04-28T05:40:30.264Z,15.75
2023-04-28T05:42:58.328Z,15.76
2023-04-28T05:45:26.382Z,15.74
2023-04-28T05:47:55.210Z,15.81
2023-04-28T05:50:24.129Z,15.88
2023-04-28T05:52:52.509Z,15.92
2023-04-28T05:55:22.100Z,15.71
2023-04-28T05:57:53.313Z,15.63
2023-04-28T06:00:22.890Z,15.58
2023-04-28T06:02:54.374Z,15.67
2023-04-28T06:05:23.453Z,15.75
2023-04-28T06:07:56.131Z,15.79
2023-04-28T06:10:27.264Z,15.77
2023-04-28T06:12:55.240Z,15.90
2023-04-28T06:15:23.115Z,15.93
2023-04-28T06:17:51.357Z,15.83
2023-04-28T06:20:20.585Z,15.85
2023-04-28T06:22:48.606Z,15.92
2023-04-28T06:25:16.563Z,15.85
2023-04-28T06:27:48.806Z,15.89
2023-04-28T06:30:19.995Z,15.79
2023-04-28T06:32:47.980Z,15.85
2023-04-28T06:35:16.478Z,15.83
2023-04-28T06:37:44.549Z,15.87
2023-04-28T06:40:12.868Z,15.91
2023-04-28T06:42:50.899Z,15.81
2023-04-28T06:45:25.650Z,15.89
2023-04-28T06:47:56.033Z,15.80
2023-04-28T06:50:24.466Z,15.82
2023-04-28T06:52:52.447Z,15.90
2023-04-28T06:55:20.567Z,16.06
2023-04-28T06:57:49.958Z,16.08
2023-04-28T07:00:18.717Z,16.05
2023-04-28T07:02:46.796Z,16.14
2023-04-28T07:05:16.282Z,16.20
2023-04-28T07:07:44.851Z,16.21
2023-04-28T07:10:13.339Z,16.25
2023-04-28T07:12:41.226Z,16.36
2023-04-28T07:15:11.585Z,16.50
2023-04-28T07:17:39.672Z,16.52
2023-04-28T07:20:08.767Z,16.54
2023-04-28T07:22:36.746Z,16.62
2023-04-28T07:25:06.049Z,16.63
2023-04-28T07:27:34.196Z,16.71
2023-04-28T07:30:11.619Z,16.80
2023-04-28T07:32:48.422Z,16.91
2023-04-28T07:35:16.466Z,16.97
2023-04-28T07:37:44.466Z,16.78
2023-04-28T07:40:12.979Z,16.77
2023-04-28T07:42:41.062Z,16.84
2023-04-28T07:45:09.788Z,16.90
2023-04-28T07:47:37.951Z,16.89
2023-04-28T07:50:08.548Z,16.97
2023-04-28T07:52:36.750Z,17.16
2023-04-28T07:55:04.788Z,17.24
2023-04-28T07:57:32.664Z,17.36
2023-04-28T08:00:00.603Z,17.41
2023-04-28T08:02:29.024Z,17.46
2023-04-28T08:04:57.408Z,17.55
2023-04-28T08:07:26.948Z,17.75
2023-04-28T08:09:55.321Z,17.82
2023-04-28T08:12:23.257Z,17.83
2023-04-28T08:14:51.149Z,17.61
2023-04-28T08:17:19.358Z,17.49
2023-04-28T08:19:47.572Z,17.68
2023-04-28T08:22:15.907Z,17.58
2023-04-28T08:24:45.232Z,17.60
2023-04-28T08:27:13.447Z,17.70
2023-04-28T08:29:41.379Z,17.71
2023-04-28T08:32:09.572Z,17.77
2023-04-28T08:34:37.532Z,18.18
2023-04-28T08:37:06.912Z,18.32
2023-04-28T08:39:35.374Z,18.40
2023-04-28T08:42:06.154Z,18.55
2023-04-28T08:44:39.473Z,18.68
2023-04-28T08:47:13.033Z,18.78
2023-04-28T08:49:45.637Z,18.77
2023-04-28T08:52:18.388Z,18.74
2023-04-28T08:54:50.577Z,18.52
2023-04-28T08:57:21.759Z,18.84
2023-04-28T08:59:50.339Z,18.59
2023-04-28T09:02:18.690Z,18.63
2023-04-28T09:04:48.269Z,18.67
2023-04-28T09:07:16.437Z,18.64
2023-04-28T09:09:45.355Z,18.51
2023-04-28T09:12:13.268Z,18.71
2023-04-28T09:14:42.694Z,18.76
2023-04-28T09:17:13.242Z,18.73
2023-04-28T09:19:43.052Z,18.63
2023-04-28T09:22:25.478Z,18.65
2023-04-28T09:24:55.439Z,18.74
2023-04-28T09:27:28.708Z,18.76
2023-04-28T09:29:58.310Z,18.78
2023-04-28T09:32:27.968Z,18.79
2023-04-28T09:34:57.532Z,18.79
2023-04-28T09:37:27.299Z,18.76
2023-04-28T09:39:56.334Z,18.79
2023-04-28T09:42:34.895Z,18.84
2023-04-28T09:45:05.966Z,18.86
2023-04-28T09:47:35.645Z,18.85
2023-04-28T09:50:05.144Z,18.84
2023-04-28T09:52:34.577Z,18.93
2023-04-28T09:55:04.712Z,18.96
2023-04-28T09:57:34.605Z,19.01
2023-04-28T10:00:06.447Z,19.11
2023-04-28T10:05:09.601Z,19.25
2023-04-28T10:07:39.199Z,19.24
2023-04-28T10:10:08.625Z,19.16
2023-04-28T10:12:38.411Z,19.10
2023-04-28T10:15:10.677Z,18.99
2023-04-28T10:17:40.624Z,19.14
2023-04-28T10:20:10.067Z,19.12
2023-04-28T10:22:54.389Z,19.28
2023-04-28T10:25:28.951Z,19.37
2023-04-28T10:27:57.326Z,19.50
2023-04-28T10:30:29.551Z,19.54
2023-04-28T10:33:27.370Z,19.66
2023-04-28T10:35:55.641Z,19.90
2023-04-28T10:38:23.589Z,20.13
2023-04-28T10:40:53.795Z,20.20
2023-04-28T10:43:40.655Z,20.03
2023-04-28T10:46:11.461Z,20.12
2023-04-28T10:48:56.483Z,19.98
2023-04-28T10:51:34.422Z,20.10
2023-04-28T10:54:28.241Z,20.30
2023-04-28T10:57:19.276Z,20.26
2023-04-28T10:59:47.414Z,20.27
2023-04-28T11:02:47.238Z,20.43
2023-04-28T11:05:18.850Z,20.43
2023-04-28T11:08:32.799Z,20.44
2023-04-28T11:11:20.812Z,20.44
2023-04-28T11:13:50.303Z,20.49
2023-04-28T11:16:23.991Z,20.49
2023-04-28T11:19:04.903Z,20.42
2023-04-28T11:21:34.051Z,20.46
2023-04-28T11:24:10.470Z,20.58
2023-04-28T11:26:39.379Z,20.80
2023-04-28T11:29:07.302Z,20.96
2023-04-28T11:31:35.416Z,20.88
2023-04-28T11:34:11.946Z,20.84
2023-04-28T11:36:41.763Z,20.94
2023-04-28T11:39:10.975Z,20.90
2023-04-28T11:41:41.051Z,20.69
2023-04-28T11:44:13.519Z,20.63
2023-04-28T11:46:51.027Z,20.66
2023-04-28T11:49:21.370Z,20.70
2023-04-28T11:51:50.288Z,20.93
2023-04-28T11:54:22.714Z,21.01
2023-04-28T11:56:51.071Z,21.02
2023-04-28T11:59:20.762Z,20.97
2023-04-28T12:01:50.857Z,21.07
2023-04-28T12:04:31.908Z,21.15
2023-04-28T12:07:02.173Z,21.13
2023-04-28T12:09:30.566Z,21.11
2023-04-28T12:12:01.000Z,21.09
2023-04-28T12:14:28.991Z,21.00
2023-04-28T12:16:57.426Z,20.94
2023-04-28T12:19:25.390Z,20.73
2023-04-28T12:22:12.431Z,20.77
2023-04-28T12:24:41.028Z,20.86
2023-04-28T12:27:16.700Z,20.96
2023-04-28T12:29:46.548Z,21.15
2023-04-28T12:32:15.228Z,21.31
2023-04-28T12:34:44.034Z,21.27
2023-04-28T12:37:13.978Z,21.34
2023-04-28T12:39:43.189Z,21.42
2023-04-28T12:42:11.798Z,21.49
2023-04-28T12:44:40.883Z,21.44
2023-04-28T12:47:11.232Z,21.38
2023-04-28T12:49:39.865Z,21.46
2023-04-28T12:52:07.934Z,21.52
2023-04-28T12:54:37.417Z,21.55
2023-04-28T12:57:06.261Z,21.61
2023-04-28T12:59:34.399Z,21.63
2023-04-28T13:02:02.671Z,21.60
2023-04-28T13:04:31.235Z,21.53
2023-04-28T13:06:59.752Z,21.69
2023-04-28T13:09:27.971Z,21.77
2023-04-28T13:11:57.328Z,21.83
2023-04-28T13:14:25.498Z,21.82
2023-04-28T13:16:53.888Z,21.78
2023-04-28T13:19:22.384Z,21.80
2023-04-28T13:21:50.637Z,21.91
2023-04-28T13:24:18.814Z,21.94
2023-04-28T13:26:46.761Z,21.86
2023-04-28T13:29:16.221Z,21.89
2023-04-28T13:31:44.508Z,21.94
2023-04-28T13:34:16.096Z,21.99
2023-04-28T13:36:45.607Z,21.96
2023-04-28T13:39:14.718Z,21.91
2023-04-28T13:41:43.220Z,21.80
2023-04-28T13:44:11.384Z,21.69
2023-04-28T13:46:40.687Z,21.52
2023-04-28T13:49:08.763Z,21.63
2023-04-28T13:51:36.735Z,21.78
2023-04-28T13:54:05.445Z,21.89
2023-04-28T13:56:33.562Z,21.90
2023-04-28T13:59:01.558Z,21.91
2023-04-28T14:01:29.733Z,22.00
2023-04-28T14:03:59.651Z,22.11
2023-04-28T14:06:28.884Z,22.01
2023-04-28T14:08:56.987Z,21.84
2023-04-28T14:11:24.891Z,21.83
2023-04-28T14:13:52.766Z,21.94
2023-04-28T14:16:20.894Z,22.01
2023-04-28T14:18:49.802Z,22.06
2023-04-28T14:21:19.042Z,22.07
2023-04-28T14:23:47.185Z,21.98
2023-04-28T14:26:15.111Z,22.13
2023-04-28T14:28:43.124Z,22.36
2023-04-28T14:31:11.043Z,22.50
2023-04-28T14:33:38.910Z,22.61
2023-04-28T14:36:06.995Z,22.54
2023-04-28T14:38:38.253Z,22.34
2023-04-28T14:41:07.475Z,22.24
2023-04-28T14:43:35.395Z,22.20
2023-04-28T14:46:03.364Z,22.15
2023-04-28T14:48:32.437Z,22.09
2023-04-28T14:51:00.518Z,21.92
2023-04-28T14:53:28.662Z,21.75
2023-04-28T14:56:07.519Z,21.76
2023-04-28T14:58:45.488Z,21.73
2023-04-28T15:01:13.475Z,21.73
2023-04-28T15:03:41.546Z,21.61
2023-04-28T15:06:10.179Z,21.58
2023-04-28T15:08:38.047Z,21.49
2023-04-28T15:11:07.351Z,21.41
2023-04-28T15:13:35.895Z,21.30
2023-04-28T15:16:03.902Z,21.33
2023-04-28T15:18:31.955Z,21.42
2023-04-28T15:21:00.559Z,21.43
2023-04-28T15:23:28.568Z,21.32
2023-04-28T15:25:56.457Z,21.33
2023-04-28T15:28:25.952Z,21.47
2023-04-28T15:30:54.022Z,21.48
2023-04-28T15:33:21.906Z,21.47
2023-04-28T15:35:49.830Z,21.52
2023-04-28T15:38:18.189Z,21.56
2023-04-28T15:40:47.200Z,21.56
2023-04-28T15:43:15.089Z,21.55
2023-04-28T15:45:44.911Z,21.61
2023-04-28T15:48:12.922Z,21.62
2023-04-28T15:50:41.709Z,21.63
2023-04-28T15:53:09.744Z,21.65
2023-04-28T15:55:37.884Z,21.61
2023-04-28T15:58:05.836Z,21.89
2023-04-28T16:00:34.207Z,22.02
2023-04-28T16:03:03.794Z,22.06
2023-04-28T16:05:31.992Z,22.16
2023-04-28T16:08:00.047Z,22.25
2023-04-28T16:10:28.561Z,22.31
2023-04-28T16:12:56.916Z,22.30
2023-04-28T16:15:25.310Z,22.35
2023-04-28T16:17:53.368Z,22.26
2023-04-28T16:20:22.857Z,22.01
2023-04-28T16:22:50.859Z,22.18
2023-04-28T16:25:19.210Z,21.90
2023-04-28T16:27:47.138Z,21.98
2023-04-28T16:30:15.452Z,22.12
2023-04-28T16:32:43.381Z,22.15
2023-04-28T16:35:15.270Z,22.18
2023-04-28T16:37:44.841Z,21.98
2023-04-28T16:40:13.966Z,21.72
2023-04-28T16:42:43.521Z,21.92
2023-04-28T16:45:12.174Z,22.09
2023-04-28T16:47:42.317Z,22.01
2023-04-28T16:50:11.567Z,21.77
2023-04-28T16:52:39.462Z,21.63
2023-04-28T16:55:09.816Z,21.58
2023-04-28T16:57:37.856Z,21.51
2023-04-28T17:00:06.881Z,21.50
2023-04-28T17:02:34.963Z,21.42
2023-04-28T17:05:03.154Z,21.35
2023-04-28T17:07:31.261Z,21.59
2023-04-28T17:09:59.317Z,21.76
2023-04-28T17:12:28.559Z,21.78
2023-04-28T17:14:56.504Z,21.83
2023-04-28T17:17:24.418Z,21.89
2023-04-28T17:19:52.689Z,21.89
2023-04-28T17:22:20.757Z,21.92
2023-04-28T17:24:48.626Z,21.96
2023-04-28T17:27:16.520Z,21.67
2023-04-28T17:29:45.814Z,21.41
2023-04-28T17:32:13.780Z,21.41
2023-04-28T17:34:41.686Z,21.69
2023-04-28T17:37:09.749Z,21.71
2023-04-28T17:39:37.645Z,21.36
2023-04-28T17:42:05.560Z,21.65
2023-04-28T17:44:33.477Z,21.72
2023-04-28T17:47:02.822Z,21.73
2023-04-28T17:49:30.910Z,21.69
2023-04-28T17:51:58.864Z,21.55
2023-04-28T17:54:26.747Z,21.20
2023-04-28T17:56:55.973Z,21.07
2023-04-28T17:59:24.133Z,21.42
2023-04-28T18:01:53.791Z,21.28
2023-04-28T18:04:23.161Z,21.46
2023-04-28T18:06:51.068Z,21.33
2023-04-28T18:09:18.985Z,21.04
2023-04-28T18:11:47.111Z,21.14
2023-04-28T18:14:18.296Z,20.87
2023-04-28T18:16:46.546Z,21.12
2023-04-28T18:19:14.694Z,21.01
2023-04-28T18:21:43.922Z,21.10
2023-04-28T18:24:11.924Z,21.18
2023-04-28T18:26:39.864Z,21.01
2023-04-28T18:29:07.805Z,21.11
2023-04-28T18:31:35.805Z,20.63
2023-04-28T18:34:05.123Z,20.89
2023-04-28T18:36:34.897Z,20.44
2023-04-28T18:39:06.252Z,20.79
2023-04-28T18:41:35.836Z,20.89
2023-04-28T18:44:04.103Z,20.58
2023-04-28T18:46:32.737Z,20.31
2023-04-28T18:49:00.698Z,20.69
2023-04-28T18:51:28.625Z,20.36
2023-04-28T18:53:56.489Z,20.20
2023-04-28T18:56:25.818Z,20.61
2023-04-28T18:58:53.702Z,20.75
2023-04-28T19:01:21.824Z,20.33
2023-04-28T19:03:50.232Z,20.55
2023-04-28T19:06:19.874Z,20.17
2023-04-28T19:08:48.067Z,19.95
2023-04-28T19:11:16.088Z,19.85
2023-04-28T19:13:45.684Z,19.92
2023-04-28T19:16:13.640Z,20.04
2023-04-28T19:18:42.141Z,20.27
2023-04-28T19:21:12.190Z,19.87
2023-04-28T19:23:40.829Z,19.98
2023-04-28T19:26:09.530Z,19.67
2023-04-28T19:28:37.565Z,20.16
2023-04-28T19:31:06.954Z,20.01
2023-04-28T19:33:34.875Z,20.13
2023-04-28T19:36:03.176Z,20.08
2023-04-28T19:38:31.145Z,19.99
2023-04-28T19:41:02.520Z,20.05
2023-04-28T19:43:30.712Z,20.00
2023-04-28T19:45:58.709Z,19.82
2023-04-28T19:48:28.217Z,19.41
2023-04-28T19:50:56.478Z,19.44
2023-04-28T19:53:24.429Z,19.42
2023-04-28T19:55:52.373Z,19.68
2023-04-28T19:58:20.834Z,19.13
2023-04-28T20:00:48.946Z,19.33
2023-04-28T20:03:17.509Z,19.11
2023-04-28T20:05:47.114Z,19.37
2023-04-28T20:08:15.085Z,18.87
2023-04-28T20:10:43.487Z,19.36
2023-04-28T20:13:11.471Z,19.35
2023-04-28T20:15:40.172Z,19.27
2023-04-28T20:18:08.193Z,19.37
2023-04-28T20:20:36.147Z,18.92
2023-04-28T20:23:05.416Z,19.24
2023-04-28T20:25:37.235Z,19.01
2023-04-28T20:28:05.375Z,19.09
2023-04-28T20:30:33.275Z,19.25
2023-04-28T20:33:01.456Z,18.70
2023-04-28T20:35:29.459Z,18.48
2023-04-28T20:37:58.769Z,19.04
2023-04-28T20:40:28.276Z,18.54
2023-04-28T20:42:56.752Z,18.38
2023-04-28T20:45:24.674Z,18.18
2023-04-28T20:47:53.940Z,18.75
2023-04-28T20:50:23.128Z,18.97
2023-04-28T20:52:51.144Z,18.33
2023-04-28T20:55:19.078Z,18.59
2023-04-28T20:57:48.392Z,18.22
2023-04-28T21:00:16.529Z,18.63
2023-04-28T21:02:45.431Z,18.29
2023-04-28T21:05:13.740Z,18.18
2023-04-28T21:07:41.732Z,18.03
2023-04-28T21:10:10.839Z,18.36
2023-04-28T21:12:38.833Z,18.73
2023-04-28T21:15:09.144Z,18.51
2023-04-28T21:17:37.113Z,18.86
2023-04-28T21:20:06.013Z,18.43
2023-04-28T21:22:34.293Z,18.22
2023-04-28T21:25:02.203Z,18.13
2023-04-28T21:27:30.132Z,18.02
2023-04-28T21:29:58.423Z,17.89
2023-04-28T21:32:27.775Z,18.08
2023-04-28T21:34:55.729Z,18.52
2023-04-28T21:37:23.678Z,18.24
2023-04-28T21:39:51.773Z,18.56
2023-04-28T21:42:19.977Z,18.03
2023-04-28T21:44:48.002Z,18.21
2023-04-28T21:47:16.726Z,18.39
2023-04-28T21:49:46.095Z,18.51
2023-04-28T21:52:14.312Z,18.12
2023-04-28T21:54:42.504Z,17.92
2023-04-28T21:57:10.453Z,18.17
2023-04-28T21:59:38.393Z,18.50
2023-04-28T22:02:07.324Z,18.33
2023-04-28T22:04:35.608Z,18.05
2023-04-28T22:07:05.763Z,17.92
2023-04-28T22:09:33.844Z,18.37
2023-04-28T22:12:01.712Z,18.19
2023-04-28T22:17:00.507Z,17.94
2023-04-28T22:19:28.394Z,18.27
2023-04-28T22:21:56.297Z,18.00
2023-04-28T22:24:25.866Z,17.77
2023-04-28T22:26:54.776Z,17.53
2023-04-28T22:29:22.847Z,17.73
2023-04-28T22:31:50.753Z,17.44
2023-04-28T22:34:18.929Z,17.34
2023-04-28T22:36:47.451Z,17.11
2023-04-28T22:39:15.530Z,17.86
2023-04-28T22:41:44.931Z,17.59
2023-04-28T22:44:12.817Z,18.02
2023-04-28T22:46:40.785Z,17.39
2023-04-28T22:49:08.793Z,17.62
2023-04-28T22:51:36.826Z,17.80
2023-04-28T22:54:04.943Z,17.62
2023-04-28T22:56:32.855Z,17.07
2023-04-28T22:59:03.190Z,17.01
2023-04-28T23:01:31.982Z,17.13
2023-04-28T23:04:00.111Z,17.18
2023-04-28T23:06:29.182Z,17.17
2023-04-28T23:08:57.090Z,17.16
2023-04-28T23:11:25.489Z,17.21
2023-04-28T23:13:53.510Z,17.26
2023-04-28T23:16:23.002Z,17.24
2023-04-28T23:18:50.963Z,17.27
2023-04-28T23:21:18.881Z,17.30
2023-04-28T23:23:46.822Z,17.27
2023-04-28T23:26:14.693Z,17.23
2023-04-28T23:28:42.639Z,17.22
2023-04-28T23:31:10.590Z,17.49
2023-04-28T23:33:39.915Z,17.37
2023-04-28T23:36:09.066Z,17.92
2023-04-28T23:38:36.978Z,17.79
2023-04-28T23:41:06.370Z,17.91
2023-04-28T23:43:34.301Z,17.89
2023-04-28T23:46:02.590Z,17.99
2023-04-28T23:48:30.559Z,17.74
2023-04-28T23:50:59.880Z,17.92
2023-04-28T23:53:28.003Z,17.41
2023-04-28T23:55:55.941Z,17.88
2023-04-28T23:58:23.909Z,18.05
